MET7781 - Keflavik to Boston

Airbus A321-232
665MT - Sharklet Equipped
5 hrs 00 mins
2094 nm
Ferry - M

Departure

Departing from
Keflavik (KEF)
Departure gate
Ramp
Scheduled Departure
GMT 1100
Local 1100
METAR BIKF 260500Z 25013KT 1000 R29/P1500D SN DRSN VV005 M03/M03 Q0966 R29/790037
TAF TAF BIKF 260133Z 2603/2703 30010KT 0900 SN SCT004 BKN007 OVC010 TXM01/2615Z TNM04/2621Z BECMG 2603/2605 27020G30KT 0400 BLSN VV002 BECMG 2605/2607 18013KT 9000 SHSN FEW015CB BKN030 BECMG 2611/2613 09020KT BECMG 2621/2624 35010KT CAVOK
  • No charts available

Arrival

Arriving at
Boston (BOS)
Arrival gate
Scheduled Arrival
GMT 1600
Local 1100
METAR KBOS 260454Z 30014G21KT 10SM FEW015 SCT026 OVC040 09/07 A2947 RMK AO2 RAE44 SLP979 P0003 T00940067 402060094
TAF KBOS 260051Z 2601/2706 17007KT 3SM BR VCSH BKN007 OVC014 FM260300 24010G20KT 3SM -SHRA OVC015 FM260500 28012G26KT P6SM VCSH BKN045 FM260600 29013G27KT P6SM BKN040 FM260700 29014G28KT P6SM SCT060 FM270300 26008KT P6SM SKC

Route Map

Planning Resources

EMBLA 60/40 59/50 PRAWN TDP YQB PLB LAMED J6 SAX J77 PENSY CSN.OTT6
EMBL1B EMBLA 6331N 6237N 6141N 6044N 5947N 5850N 5752N 5654N 5556N VALIE TAFFY PQI J55 ENE Q480 BAF J77 PTW PPM HURTZ
VESTUR1A VANDA STEAM N149B TOPPS J581 ENE J55 PVD J225 JFK J79 VILLS PPM
KEF4F NN FOXXE N27OB YBC N272C YSC J563 ALB J6 BWZ J77 SHILO
KEF4F DCT YDP J583 YWK J561 YBC J563 ALB J6 PWT
Route:
OFP Layout:
Units:
Detailed Navlog:
ETOPS Planning:
Plan Stepclimbs:
Runway Analysis:
Include NOTAMS:
FIR NOTAMS:
Flight Maps:

Return Flights

MET41
Boeing 757-200W
0400 GMT

Popularity

Hub Current Bids PiReps this month Total PiReps
KMCI 0 0 1
KLAX 0 0 0
KBOS 0 0 0